createdAt,value
2018-07-26T00:00:44.426Z,74.80
2018-07-26T00:03:12.651Z,74.80
2018-07-26T00:05:40.866Z,75.20
2018-07-26T00:08:09.071Z,75.30
2018-07-26T00:10:37.292Z,75.30
2018-07-26T00:13:05.936Z,75.10
2018-07-26T00:15:33.711Z,75.10
2018-07-26T00:18:01.931Z,74.90
2018-07-26T00:20:30.151Z,75.20
2018-07-26T00:22:58.367Z,75.80
2018-07-26T00:25:26.572Z,75.90
2018-07-26T00:27:54.794Z,75.90
2018-07-26T00:30:23.008Z,76.00
2018-07-26T00:32:51.222Z,76.40
2018-07-26T00:35:19.439Z,76.70
2018-07-26T00:37:46.896Z,76.70
2018-07-26T00:40:15.102Z,76.90
2018-07-26T00:42:43.327Z,77.00
2018-07-26T00:45:11.531Z,77.10
2018-07-26T00:47:39.751Z,77.20
2018-07-26T00:50:07.968Z,77.20
2018-07-26T00:52:36.181Z,77.20
2018-07-26T00:55:04.406Z,77.40
2018-07-26T00:57:32.628Z,77.70
2018-07-26T01:00:00.834Z,78.20
2018-07-26T01:02:29.039Z,78.30
2018-07-26T01:04:57.252Z,78.80
2018-07-26T01:07:24.691Z,78.80
2018-07-26T01:09:52.919Z,79.00
2018-07-26T01:12:21.118Z,79.30
2018-07-26T01:14:49.336Z,79.20
2018-07-26T01:17:16.779Z,79.20
2018-07-26T01:19:44.995Z,79.60
2018-07-26T01:22:12.440Z,79.60
2018-07-26T01:24:40.655Z,79.60
2018-07-26T01:27:08.882Z,79.70
2018-07-26T01:29:37.092Z,79.90
2018-07-26T01:32:05.301Z,79.90
2018-07-26T01:34:33.510Z,80.00
2018-07-26T01:37:01.721Z,79.80
2018-07-26T01:39:29.930Z,79.90
2018-07-26T01:41:58.145Z,80.00
2018-07-26T01:44:26.361Z,80.20
2018-07-26T01:46:54.566Z,80.50
2018-07-26T01:49:22.788Z,80.50
2018-07-26T01:51:51.003Z,80.50
2018-07-26T01:54:19.219Z,81.60
2018-07-26T01:56:47.434Z,81.00
2018-07-26T01:59:15.659Z,81.30
2018-07-26T02:01:43.898Z,82.00
2018-07-26T02:04:12.097Z,81.40
2018-07-26T02:06:40.311Z,81.80
2018-07-26T02:09:08.535Z,82.10
2018-07-26T02:11:36.748Z,82.50
2018-07-26T02:14:04.968Z,82.70
2018-07-26T02:16:33.179Z,82.50
2018-07-26T02:19:01.414Z,82.90
2018-07-26T02:21:29.635Z,83.10
2018-07-26T02:23:57.850Z,83.50
2018-07-26T02:26:26.066Z,83.50
2018-07-26T02:28:53.527Z,83.50
2018-07-26T02:31:21.728Z,83.50
2018-07-26T02:33:49.958Z,83.50
2018-07-26T02:36:18.177Z,83.70
2018-07-26T02:38:46.392Z,83.90
2018-07-26T02:41:14.612Z,84.00
2018-07-26T02:43:42.843Z,84.10
2018-07-26T02:46:10.297Z,84.10
2018-07-26T02:48:38.520Z,84.50
2018-07-26T02:51:06.727Z,84.70
2018-07-26T02:53:34.940Z,84.60
2018-07-26T02:56:03.164Z,84.80
2018-07-26T02:58:30.620Z,84.70
2018-07-26T03:00:58.844Z,84.70
2018-07-26T03:03:27.069Z,84.50
2018-07-26T03:05:55.287Z,84.40
2018-07-26T03:08:23.500Z,84.30
2018-07-26T03:10:51.723Z,84.30
2018-07-26T03:13:19.936Z,84.40
2018-07-26T03:15:48.163Z,84.40
2018-07-26T03:18:16.371Z,84.40
2018-07-26T03:20:44.588Z,84.60
2018-07-26T03:23:12.036Z,84.60
2018-07-26T03:25:40.251Z,85.50
2018-07-26T03:28:08.464Z,86.30
2018-07-26T03:30:36.687Z,86.60
2018-07-26T03:33:04.900Z,86.60
2018-07-26T03:35:33.119Z,86.50
2018-07-26T03:38:01.332Z,86.70
2018-07-26T03:40:28.783Z,86.70
2018-07-26T03:42:56.996Z,87.00
2018-07-26T03:45:25.223Z,87.10
2018-07-26T03:47:53.441Z,87.20
2018-07-26T03:50:21.664Z,87.60
2018-07-26T03:52:49.985Z,87.30
2018-07-26T03:55:18.095Z,87.70
2018-07-26T03:57:46.351Z,87.70
2018-07-26T04:00:14.534Z,87.70
2018-07-26T04:02:42.754Z,87.70
2018-07-26T04:05:10.979Z,87.50
2018-07-26T04:07:39.189Z,87.20
2018-07-26T04:10:07.405Z,87.10
2018-07-26T04:12:35.623Z,87.10
2018-07-26T04:15:03.836Z,86.80
2018-07-26T04:17:32.052Z,86.80
2018-07-26T04:20:00.278Z,86.60
2018-07-26T04:22:28.483Z,86.70
2018-07-26T04:24:56.711Z,87.00
2018-07-26T04:27:24.921Z,86.70
2018-07-26T04:29:53.151Z,86.70
2018-07-26T04:32:21.369Z,86.40
2018-07-26T04:34:49.597Z,86.20
2018-07-26T04:37:17.800Z,86.00
2018-07-26T04:39:46.037Z,86.00
2018-07-26T04:42:14.243Z,86.20
2018-07-26T04:44:42.466Z,86.20
2018-07-26T04:47:10.707Z,86.40
2018-07-26T04:49:38.924Z,86.50
2018-07-26T04:52:07.135Z,86.60
2018-07-26T04:54:35.376Z,86.50
2018-07-26T04:57:03.568Z,86.30
2018-07-26T04:59:31.775Z,86.20
2018-07-26T05:01:59.992Z,85.80
2018-07-26T05:04:28.207Z,85.50
2018-07-26T05:06:56.427Z,85.30
2018-07-26T05:09:24.627Z,85.10
2018-07-26T05:11:52.839Z,85.00
2018-07-26T05:14:21.053Z,85.00
2018-07-26T05:16:49.272Z,85.00
2018-07-26T05:19:17.492Z,85.10
2018-07-26T05:21:45.707Z,85.10
2018-07-26T05:24:13.924Z,85.00
2018-07-26T05:26:42.144Z,84.90
2018-07-26T05:29:10.362Z,85.60
2018-07-26T05:31:38.608Z,84.30
2018-07-26T05:34:06.796Z,83.80
2018-07-26T05:36:35.025Z,83.00
2018-07-26T05:39:03.235Z,83.20
2018-07-26T05:41:31.443Z,82.70
2018-07-26T05:43:59.655Z,81.60
2018-07-26T05:46:27.879Z,80.60
2018-07-26T05:48:56.100Z,79.20
2018-07-26T05:51:24.319Z,78.20
2018-07-26T05:53:52.539Z,76.90
2018-07-26T05:56:20.751Z,76.30
2018-07-26T05:58:48.977Z,75.70
2018-07-26T06:01:17.192Z,75.00
2018-07-26T06:03:45.400Z,74.80
2018-07-26T06:06:13.619Z,72.60
2018-07-26T06:08:41.864Z,71.80
2018-07-26T06:11:10.088Z,71.10
2018-07-26T06:13:38.303Z,70.80
2018-07-26T06:16:06.525Z,70.10
2018-07-26T06:18:34.735Z,69.50
2018-07-26T06:21:02.951Z,69.10
2018-07-26T06:23:31.172Z,68.30
2018-07-26T06:25:59.383Z,67.80
2018-07-26T06:28:27.608Z,66.90
2018-07-26T06:30:55.837Z,66.70
2018-07-26T06:33:24.119Z,66.80
2018-07-26T06:35:52.271Z,66.10
2018-07-26T06:38:20.492Z,64.80
2018-07-26T06:40:48.707Z,64.10
2018-07-26T06:43:16.921Z,64.20
2018-07-26T06:45:45.142Z,64.10
2018-07-26T06:48:13.359Z,63.40
2018-07-26T06:50:41.580Z,62.40
2018-07-26T06:53:09.843Z,62.30
2018-07-26T06:55:38.015Z,61.80
2018-07-26T06:58:06.232Z,61.20
2018-07-26T07:00:34.449Z,60.60
2018-07-26T07:03:02.680Z,59.80
2018-07-26T07:05:30.893Z,58.90
2018-07-26T07:07:59.121Z,58.70
2018-07-26T07:10:27.337Z,58.50
2018-07-26T07:12:55.552Z,58.30
2018-07-26T07:15:23.000Z,58.30
2018-07-26T07:17:51.228Z,58.00
2018-07-26T07:20:18.679Z,58.00
2018-07-26T07:22:46.896Z,58.20
2018-07-26T07:25:15.108Z,58.20
2018-07-26T07:27:43.352Z,57.30
2018-07-26T07:30:11.546Z,56.30
2018-07-26T07:32:39.762Z,55.60
2018-07-26T07:35:08.020Z,55.00
2018-07-26T07:37:35.468Z,55.00
2018-07-26T07:40:03.664Z,53.30
2018-07-26T07:42:31.876Z,52.80
2018-07-26T07:45:00.084Z,52.10
2018-07-26T07:47:28.357Z,51.30
2018-07-26T07:49:56.508Z,50.80
2018-07-26T07:52:24.723Z,50.10
2018-07-26T07:54:52.932Z,49.50
2018-07-26T07:57:21.143Z,48.10
2018-07-26T07:59:48.631Z,48.10
2018-07-26T08:02:16.800Z,46.00
2018-07-26T08:04:45.014Z,45.60
2018-07-26T08:07:13.219Z,44.90
2018-07-26T08:09:41.425Z,44.20
2018-07-26T08:12:09.633Z,43.70
2018-07-26T08:14:37.839Z,43.30
2018-07-26T08:17:05.287Z,43.30
2018-07-26T08:19:33.487Z,43.20
2018-07-26T08:22:01.700Z,42.60
2018-07-26T08:24:29.143Z,42.60
2018-07-26T08:26:57.361Z,41.50
2018-07-26T08:29:25.611Z,41.10
2018-07-26T08:31:53.794Z,41.10
2018-07-26T08:34:21.999Z,41.30
2018-07-26T08:36:49.440Z,41.20
2018-07-26T08:39:17.652Z,40.70
2018-07-26T08:41:45.860Z,39.70
2018-07-26T08:44:14.071Z,39.80
2018-07-26T08:46:41.521Z,39.80
2018-07-26T08:49:08.963Z,39.10
2018-07-26T08:51:37.164Z,38.30
2018-07-26T08:54:05.380Z,37.50
2018-07-26T08:56:33.588Z,36.90
2018-07-26T08:59:01.808Z,36.10
2018-07-26T09:01:30.012Z,36.40
2018-07-26T09:03:58.224Z,36.10
2018-07-26T09:06:26.434Z,35.90
2018-07-26T09:08:54.645Z,35.10
2018-07-26T09:11:22.849Z,34.50
2018-07-26T09:13:51.142Z,34.40
2018-07-26T09:16:19.265Z,34.90
2018-07-26T09:18:47.471Z,33.30
2018-07-26T09:21:15.692Z,33.20
2018-07-26T09:23:43.908Z,34.50
2018-07-26T09:26:12.164Z,33.60
2018-07-26T09:28:40.328Z,32.60
2018-07-26T09:31:08.532Z,32.20
2018-07-26T09:33:36.755Z,31.40
2018-07-26T09:36:04.191Z,31.40
2018-07-26T09:38:32.409Z,32.30
2018-07-26T09:41:00.620Z,31.70
2018-07-26T09:43:28.828Z,31.80
2018-07-26T09:45:56.276Z,31.70
2018-07-26T09:48:24.495Z,31.00
2018-07-26T09:50:52.695Z,31.60
2018-07-26T09:53:20.144Z,31.70
2018-07-26T09:55:48.353Z,32.10
2018-07-26T09:58:16.569Z,31.70
2018-07-26T10:00:44.783Z,31.80
2018-07-26T10:03:13.000Z,31.10
2018-07-26T10:05:41.213Z,30.80
2018-07-26T10:08:09.423Z,31.00
2018-07-26T10:10:37.638Z,30.50
2018-07-26T10:13:05.843Z,30.30
2018-07-26T10:15:33.293Z,30.30
2018-07-26T10:18:01.500Z,30.00
2018-07-26T10:20:29.711Z,29.50
2018-07-26T10:22:57.932Z,29.70
2018-07-26T10:25:26.145Z,29.20
2018-07-26T10:27:54.371Z,29.10
2018-07-26T10:30:22.566Z,30.10
2018-07-26T10:32:50.769Z,29.20
2018-07-26T10:35:18.984Z,28.70
2018-07-26T10:37:47.184Z,28.20
2018-07-26T10:40:15.403Z,28.40
2018-07-26T10:42:43.611Z,28.40
2018-07-26T10:45:11.824Z,28.40
2018-07-26T10:47:40.037Z,27.90
2018-07-26T10:50:08.243Z,28.30
2018-07-26T10:52:36.452Z,28.50
2018-07-26T10:55:04.671Z,28.80
2018-07-26T10:57:32.115Z,29.30
2018-07-26T11:00:00.333Z,28.60
2018-07-26T11:02:28.543Z,29.20
2018-07-26T11:04:56.761Z,29.30
2018-07-26T11:07:24.997Z,29.40
2018-07-26T11:09:52.451Z,29.40
2018-07-26T11:12:20.669Z,29.40
2018-07-26T11:14:48.875Z,29.70
2018-07-26T11:17:16.861Z,29.70
2018-07-26T11:19:45.088Z,29.70
2018-07-26T11:22:13.288Z,29.70
2018-07-26T11:24:41.508Z,30.30
2018-07-26T11:27:09.743Z,29.90
2018-07-26T11:29:38.015Z,30.00
2018-07-26T11:32:06.166Z,29.30
2018-07-26T11:34:34.373Z,28.90
2018-07-26T11:37:02.576Z,28.70
2018-07-26T11:39:30.787Z,27.70
2018-07-26T11:41:58.991Z,27.30
2018-07-26T11:44:27.209Z,26.20
2018-07-26T11:46:55.412Z,26.50
2018-07-26T11:49:23.643Z,26.40
2018-07-26T11:51:51.847Z,26.90
2018-07-26T11:54:20.074Z,26.80
2018-07-26T11:56:48.294Z,26.30
2018-07-26T11:59:16.496Z,25.60
2018-07-26T12:01:44.787Z,25.30
2018-07-26T12:04:12.928Z,25.50
2018-07-26T12:06:41.141Z,25.50
2018-07-26T12:09:09.358Z,25.30
2018-07-26T12:11:37.575Z,26.10
2018-07-26T12:14:05.784Z,25.40
2018-07-26T12:16:33.239Z,25.40
2018-07-26T12:19:01.445Z,24.60
2018-07-26T12:21:29.659Z,24.80
2018-07-26T12:23:57.877Z,25.30
2018-07-26T12:26:26.096Z,24.90
2018-07-26T12:28:54.304Z,24.40
2018-07-26T12:31:22.524Z,24.00
2018-07-26T12:33:50.733Z,24.20
2018-07-26T12:36:18.939Z,24.30
2018-07-26T12:38:47.154Z,24.20
2018-07-26T12:41:15.393Z,24.20
2018-07-26T12:43:43.606Z,23.70
2018-07-26T12:46:11.796Z,23.90
2018-07-26T12:48:39.240Z,23.90
2018-07-26T12:51:07.472Z,23.30
2018-07-26T12:53:35.683Z,23.50
2018-07-26T12:56:03.900Z,23.90
2018-07-26T12:58:32.111Z,24.60
2018-07-26T13:01:00.333Z,25.40
2018-07-26T13:03:28.575Z,26.00
2018-07-26T13:05:56.794Z,26.60
2018-07-26T13:08:25.020Z,26.70
2018-07-26T13:10:53.249Z,27.10
2018-07-26T13:13:21.453Z,27.20
2018-07-26T13:15:49.666Z,27.90
2018-07-26T13:18:17.863Z,28.20
2018-07-26T13:20:46.081Z,28.30
2018-07-26T13:23:14.292Z,28.40
2018-07-26T13:25:42.537Z,28.60
2018-07-26T13:28:10.409Z,28.60
2018-07-26T13:30:39.119Z,31.20
2018-07-26T13:33:07.327Z,34.10
2018-07-26T13:35:34.775Z,34.00
2018-07-26T13:38:02.990Z,38.90
2018-07-26T13:40:31.218Z,40.60
2018-07-26T13:42:59.425Z,43.20
2018-07-26T13:45:27.639Z,45.00
2018-07-26T13:47:56.388Z,46.30
2018-07-26T13:50:24.609Z,46.60
2018-07-26T13:52:52.820Z,45.60
2018-07-26T13:55:21.031Z,45.00
2018-07-26T13:57:49.236Z,44.80
2018-07-26T14:00:17.457Z,45.50
2018-07-26T14:02:45.657Z,46.60
2018-07-26T14:05:13.881Z,46.70
2018-07-26T14:07:42.087Z,46.20
2018-07-26T14:10:10.297Z,44.80
2018-07-26T14:12:38.516Z,44.00
2018-07-26T14:15:07.223Z,42.60
2018-07-26T14:17:35.835Z,42.00
2018-07-26T14:20:04.342Z,42.00
2018-07-26T14:22:32.809Z,41.60
2018-07-26T14:25:01.047Z,41.90
2018-07-26T14:27:28.499Z,41.90
2018-07-26T14:29:56.715Z,40.40
2018-07-26T14:32:24.943Z,40.10
2018-07-26T14:34:53.152Z,40.00
2018-07-26T14:37:21.369Z,40.60
2018-07-26T14:39:49.575Z,42.20
2018-07-26T14:42:17.800Z,41.20
2018-07-26T14:44:46.016Z,40.00
2018-07-26T14:47:14.223Z,40.40
2018-07-26T14:49:42.423Z,42.00
2018-07-26T14:52:10.631Z,43.00
2018-07-26T14:54:38.907Z,43.70
2018-07-26T14:57:07.056Z,43.50
2018-07-26T14:59:35.266Z,42.50
2018-07-26T15:02:03.485Z,42.20
2018-07-26T15:04:31.689Z,43.30
2018-07-26T15:06:59.908Z,44.20
2018-07-26T15:09:28.120Z,45.20
2018-07-26T15:11:56.336Z,45.20
2018-07-26T15:14:24.551Z,46.70
2018-07-26T15:16:52.764Z,48.10
2018-07-26T15:19:20.970Z,48.70
2018-07-26T15:21:49.190Z,48.90
2018-07-26T15:24:17.388Z,49.20
2018-07-26T15:26:45.607Z,48.90
2018-07-26T15:29:13.815Z,48.30
2018-07-26T15:31:42.037Z,47.90
2018-07-26T15:34:10.245Z,47.60
2018-07-26T15:36:38.451Z,47.50
2018-07-26T15:39:06.664Z,47.00
2018-07-26T15:41:34.932Z,46.20
2018-07-26T15:44:03.088Z,46.10
2018-07-26T15:46:31.308Z,46.30
2018-07-26T15:48:59.527Z,49.20
2018-07-26T15:51:27.797Z,51.90
2018-07-26T15:53:55.981Z,52.00
2018-07-26T15:56:24.212Z,52.90
2018-07-26T15:58:52.411Z,52.80
2018-07-26T16:01:20.660Z,52.80
2018-07-26T16:03:48.876Z,52.40
2018-07-26T16:06:17.079Z,51.90
2018-07-26T16:08:45.312Z,51.80
2018-07-26T16:11:13.511Z,51.20
2018-07-26T16:13:41.728Z,50.30
2018-07-26T16:16:09.936Z,49.60
2018-07-26T16:18:38.153Z,49.60
2018-07-26T16:21:06.360Z,50.10
2018-07-26T16:23:34.572Z,50.90
2018-07-26T16:26:02.794Z,52.00
2018-07-26T16:28:31.027Z,52.30
2018-07-26T16:30:59.249Z,52.60
2018-07-26T16:33:27.456Z,53.40
2018-07-26T16:35:55.659Z,53.20
2018-07-26T16:38:23.894Z,53.40
2018-07-26T16:40:52.101Z,54.20
2018-07-26T16:43:20.327Z,54.30
2018-07-26T16:45:48.539Z,54.30
2018-07-26T16:48:16.779Z,54.40
2018-07-26T16:50:44.981Z,54.60
2018-07-26T16:53:13.191Z,55.00
2018-07-26T16:55:41.407Z,55.30
2018-07-26T16:58:09.628Z,55.10
2018-07-26T17:00:37.835Z,53.90
2018-07-26T17:03:06.068Z,52.10
2018-07-26T17:05:34.281Z,51.40
2018-07-26T17:08:02.498Z,51.40
2018-07-26T17:10:30.704Z,52.60
2018-07-26T17:12:58.926Z,54.30
2018-07-26T17:15:27.133Z,55.30
2018-07-26T17:17:55.354Z,56.00
2018-07-26T17:20:23.568Z,57.30
2018-07-26T17:22:51.775Z,58.30
2018-07-26T17:25:19.987Z,59.00
2018-07-26T17:27:48.228Z,59.70
2018-07-26T17:30:16.434Z,60.50
2018-07-26T17:32:44.644Z,61.70
2018-07-26T17:35:12.851Z,63.50
2018-07-26T17:37:41.077Z,66.10
2018-07-26T17:40:09.343Z,66.40
2018-07-26T17:42:37.511Z,67.40
2018-07-26T17:45:05.721Z,68.50
2018-07-26T17:47:33.929Z,68.40
2018-07-26T17:50:02.148Z,69.10
2018-07-26T17:52:30.357Z,70.10
2018-07-26T17:54:58.567Z,72.40
2018-07-26T17:57:26.775Z,72.50
2018-07-26T17:59:55.000Z,73.30
2018-07-26T18:02:23.213Z,74.10
2018-07-26T18:04:51.424Z,74.90
2018-07-26T18:07:19.635Z,76.00
2018-07-26T18:09:47.844Z,77.30
2018-07-26T18:12:16.049Z,78.30
2018-07-26T18:14:44.259Z,79.40
2018-07-26T18:17:12.468Z,79.20
2018-07-26T18:19:40.686Z,79.40
2018-07-26T18:22:08.896Z,79.70
2018-07-26T18:24:37.118Z,80.00
2018-07-26T18:27:05.334Z,80.60
2018-07-26T18:29:33.540Z,81.40
2018-07-26T18:32:01.748Z,82.30
2018-07-26T18:34:29.967Z,83.00
2018-07-26T18:36:58.192Z,83.90
2018-07-26T18:39:26.403Z,84.40
2018-07-26T18:41:54.626Z,85.00
2018-07-26T18:44:22.853Z,85.40
2018-07-26T18:46:51.064Z,85.90
2018-07-26T18:49:19.389Z,86.30
2018-07-26T18:51:47.552Z,86.60
2018-07-26T18:54:15.023Z,87.40
2018-07-26T18:56:43.236Z,87.20
2018-07-26T18:59:11.481Z,87.50
2018-07-26T19:01:39.712Z,87.70
2018-07-26T19:04:07.952Z,87.90
2018-07-26T19:06:36.173Z,88.10
2018-07-26T19:09:04.415Z,88.40
2018-07-26T19:11:32.637Z,89.00
2018-07-26T19:14:00.856Z,89.30
2018-07-26T19:16:29.075Z,89.80
2018-07-26T19:18:56.586Z,89.70
2018-07-26T19:21:24.798Z,90.20
2018-07-26T19:23:53.034Z,90.10
2018-07-26T19:26:21.208Z,90.30
2018-07-26T19:28:49.440Z,90.60
2018-07-26T19:31:17.648Z,90.50
2018-07-26T19:33:45.868Z,90.60
2018-07-26T19:36:14.114Z,90.70
2018-07-26T19:38:42.309Z,90.90
2018-07-26T19:41:10.513Z,91.10
2018-07-26T19:43:38.734Z,91.20
2018-07-26T19:46:06.953Z,91.40
2018-07-26T19:48:35.175Z,91.60
2018-07-26T19:51:03.411Z,91.80
2018-07-26T19:53:30.866Z,91.80
2018-07-26T19:55:59.098Z,92.40
2018-07-26T19:58:27.364Z,92.50
2018-07-26T20:00:55.580Z,92.60
2018-07-26T20:03:23.027Z,92.60
2018-07-26T20:05:51.289Z,92.70
2018-07-26T20:08:19.504Z,92.80
2018-07-26T20:10:47.728Z,92.80
2018-07-26T20:13:15.952Z,92.80
2018-07-26T20:15:44.187Z,92.80
2018-07-26T20:18:12.384Z,92.70
2018-07-26T20:20:40.608Z,92.50
2018-07-26T20:23:08.052Z,92.50
2018-07-26T20:25:36.268Z,92.10
2018-07-26T20:28:04.568Z,92.10
2018-07-26T20:30:32.709Z,92.30
2018-07-26T20:33:00.950Z,92.10
2018-07-26T20:35:29.172Z,92.10
2018-07-26T20:37:56.615Z,92.10
2018-07-26T20:40:24.836Z,92.10
2018-07-26T20:42:53.061Z,92.00
2018-07-26T20:45:20.512Z,92.00
2018-07-26T20:47:48.732Z,92.00
2018-07-26T20:50:16.947Z,92.00
2018-07-26T20:52:45.169Z,92.00
2018-07-26T20:55:13.388Z,92.10
2018-07-26T20:57:41.595Z,92.20
2018-07-26T21:00:09.837Z,92.30
2018-07-26T21:02:38.041Z,92.30
2018-07-26T21:05:06.251Z,92.40
2018-07-26T21:07:34.459Z,92.40
2018-07-26T21:10:02.710Z,92.30
2018-07-26T21:12:30.911Z,92.00
2018-07-26T21:14:59.144Z,91.70
2018-07-26T21:17:26.588Z,91.70
2018-07-26T21:19:54.806Z,91.30
2018-07-26T21:22:23.020Z,91.20
2018-07-26T21:24:51.251Z,91.10
2018-07-26T21:27:19.455Z,91.10
2018-07-26T21:29:47.670Z,90.90
2018-07-26T21:32:15.878Z,90.70
2018-07-26T21:34:44.106Z,90.60
2018-07-26T21:37:12.324Z,90.50
2018-07-26T21:39:40.539Z,90.20
2018-07-26T21:42:08.760Z,90.10
2018-07-26T21:44:36.999Z,90.00
2018-07-26T21:47:05.195Z,89.80
2018-07-26T21:49:33.407Z,89.60
2018-07-26T21:52:01.631Z,89.40
2018-07-26T21:54:29.843Z,88.80
2018-07-26T21:56:58.063Z,88.70
2018-07-26T21:59:26.279Z,88.80
2018-07-26T22:01:54.495Z,88.40
2018-07-26T22:04:22.708Z,88.30
2018-07-26T22:06:50.923Z,88.10
2018-07-26T22:09:18.364Z,88.10
2018-07-26T22:11:46.582Z,87.70
2018-07-26T22:14:14.797Z,87.60
2018-07-26T22:16:43.012Z,87.60
2018-07-26T22:19:11.237Z,87.90
2018-07-26T22:21:39.452Z,87.90
2018-07-26T22:24:07.672Z,88.00
2018-07-26T22:26:35.888Z,88.00
2018-07-26T22:29:03.380Z,88.00
2018-07-26T22:31:31.543Z,87.10
2018-07-26T22:33:59.767Z,86.70
2018-07-26T22:36:27.978Z,86.20
2018-07-26T22:38:56.194Z,86.10
2018-07-26T22:41:24.412Z,86.20
2018-07-26T22:43:52.620Z,86.60
2018-07-26T22:46:20.841Z,87.30
2018-07-26T22:48:49.058Z,87.40
2018-07-26T22:51:17.273Z,87.20
2018-07-26T22:53:45.483Z,87.10
2018-07-26T22:56:13.700Z,87.20
2018-07-26T22:58:41.922Z,87.00
2018-07-26T23:01:10.145Z,86.90
2018-07-26T23:03:38.353Z,86.70
2018-07-26T23:06:06.566Z,86.40
2018-07-26T23:08:34.775Z,86.60
2018-07-26T23:11:02.996Z,86.80
2018-07-26T23:13:31.203Z,87.00
2018-07-26T23:15:59.426Z,87.30
2018-07-26T23:18:27.634Z,87.30
2018-07-26T23:20:55.856Z,87.50
2018-07-26T23:23:24.061Z,87.70
2018-07-26T23:25:52.276Z,87.70
2018-07-26T23:28:20.493Z,87.90
2018-07-26T23:30:48.712Z,87.70
2018-07-26T23:33:16.928Z,87.80
2018-07-26T23:35:45.141Z,88.50
2018-07-26T23:38:13.363Z,87.80
2018-07-26T23:40:41.579Z,87.70
2018-07-26T23:43:09.039Z,87.70
2018-07-26T23:45:37.244Z,87.90
2018-07-26T23:48:05.477Z,88.30
2018-07-26T23:50:33.688Z,88.40
2018-07-26T23:53:01.903Z,88.60
2018-07-26T23:55:30.112Z,89.10
2018-07-26T23:57:58.331Z,89.40
